sensor_id;sensor_type;location;lat;lon;timestamp;P1;durP1;ratioP1;P2;durP2;ratioP2
51792;SDS011;37850;53.178;6.376;2022-09-06T00:01:06;9.10;;;3.13;;
51792;SDS011;37850;53.178;6.376;2022-09-06T00:03:33;7.40;;;3.40;;
51792;SDS011;37850;53.178;6.376;2022-09-06T00:06:04;9.55;;;3.40;;
51792;SDS011;37850;53.178;6.376;2022-09-06T00:08:31;8.23;;;2.80;;
51792;SDS011;37850;53.178;6.376;2022-09-06T00:10:57;7.93;;;3.00;;
51792;SDS011;37850;53.178;6.376;2022-09-06T00:13:23;9.40;;;3.22;;
51792;SDS011;37850;53.178;6.376;2022-09-06T00:15:49;8.32;;;3.15;;
51792;SDS011;37850;53.178;6.376;2022-09-06T00:18:15;12.65;;;3.65;;
51792;SDS011;37850;53.178;6.376;2022-09-06T00:20:41;6.10;;;2.95;;
51792;SDS011;37850;53.178;6.376;2022-09-06T00:23:07;8.15;;;2.95;;
51792;SDS011;37850;53.178;6.376;2022-09-06T00:25:33;7.50;;;3.50;;
51792;SDS011;37850;53.178;6.376;2022-09-06T00:27:59;10.38;;;3.90;;
51792;SDS011;37850;53.178;6.376;2022-09-06T00:30:28;7.93;;;3.28;;
51792;SDS011;37850;53.178;6.376;2022-09-06T00:32:54;6.65;;;3.25;;
51792;SDS011;37850;53.178;6.376;2022-09-06T00:35:20;7.25;;;3.22;;
51792;SDS011;37850;53.178;6.376;2022-09-06T00:37:49;6.78;;;3.15;;
51792;SDS011;37850;53.178;6.376;2022-09-06T00:40:16;7.65;;;3.15;;
51792;SDS011;37850;53.178;6.376;2022-09-06T00:42:42;8.48;;;3.75;;
51792;SDS011;37850;53.178;6.376;2022-09-06T00:45:07;11.48;;;3.33;;
51792;SDS011;37850;53.178;6.376;2022-09-06T00:47:35;6.25;;;3.30;;
51792;SDS011;37850;53.178;6.376;2022-09-06T00:50:04;5.78;;;2.90;;
51792;SDS011;37850;53.178;6.376;2022-09-06T00:52:31;7.20;;;2.95;;
51792;SDS011;37850;53.178;6.376;2022-09-06T00:54:58;8.80;;;2.83;;
51792;SDS011;37850;53.178;6.376;2022-09-06T00:57:25;8.38;;;3.10;;
51792;SDS011;37850;53.178;6.376;2022-09-06T00:59:53;9.32;;;3.72;;
51792;SDS011;37850;53.178;6.376;2022-09-06T01:02:20;8.18;;;3.30;;
51792;SDS011;37850;53.178;6.376;2022-09-06T01:04:46;6.72;;;2.92;;
51792;SDS011;37850;53.178;6.376;2022-09-06T01:10:48;13.75;;;3.60;;
51792;SDS011;37850;53.178;6.376;2022-09-06T01:26:50;7.68;;;3.45;;
51792;SDS011;37850;53.178;6.376;2022-09-06T01:29:31;6.65;;;3.10;;
51792;SDS011;37850;53.178;6.376;2022-09-06T01:37:39;9.47;;;3.47;;
51792;SDS011;37850;53.178;6.376;2022-09-06T01:40:06;7.63;;;3.22;;
51792;SDS011;37850;53.178;6.376;2022-09-06T01:42:32;8.30;;;3.78;;
51792;SDS011;37850;53.178;6.376;2022-09-06T01:45:04;7.30;;;3.13;;
51792;SDS011;37850;53.178;6.376;2022-09-06T01:47:35;6.93;;;3.30;;
51792;SDS011;37850;53.178;6.376;2022-09-06T02:01:40;7.60;;;3.65;;
51792;SDS011;37850;53.178;6.376;2022-09-06T02:04:19;8.20;;;3.38;;
51792;SDS011;37850;53.178;6.376;2022-09-06T02:06:53;7.97;;;3.78;;
51792;SDS011;37850;53.178;6.376;2022-09-06T02:09:24;12.57;;;4.05;;
51792;SDS011;37850;53.178;6.376;2022-09-06T02:11:57;7.88;;;3.58;;
51792;SDS011;37850;53.178;6.376;2022-09-06T02:14:39;10.45;;;3.88;;
51792;SDS011;37850;53.178;6.376;2022-09-06T02:17:14;9.18;;;3.60;;
51792;SDS011;37850;53.178;6.376;2022-09-06T02:19:53;7.80;;;3.80;;
51792;SDS011;37850;53.178;6.376;2022-09-06T02:22:24;11.55;;;3.63;;
51792;SDS011;37850;53.178;6.376;2022-09-06T02:24:55;8.82;;;3.70;;
51792;SDS011;37850;53.178;6.376;2022-09-06T02:27:24;8.13;;;3.67;;
51792;SDS011;37850;53.178;6.376;2022-09-06T02:29:50;9.45;;;3.78;;
51792;SDS011;37850;53.178;6.376;2022-09-06T02:32:23;8.45;;;3.90;;
51792;SDS011;37850;53.178;6.376;2022-09-06T02:34:51;8.02;;;4.10;;
51792;SDS011;37850;53.178;6.376;2022-09-06T02:37:19;7.90;;;3.70;;
51792;SDS011;37850;53.178;6.376;2022-09-06T02:39:47;9.82;;;3.33;;
51792;SDS011;37850;53.178;6.376;2022-09-06T02:42:13;7.88;;;3.88;;
51792;SDS011;37850;53.178;6.376;2022-09-06T02:44:41;7.82;;;3.83;;
51792;SDS011;37850;53.178;6.376;2022-09-06T02:47:07;10.57;;;3.95;;
51792;SDS011;37850;53.178;6.376;2022-09-06T02:49:33;13.60;;;4.07;;
51792;SDS011;37850;53.178;6.376;2022-09-06T02:51:59;9.65;;;3.90;;
51792;SDS011;37850;53.178;6.376;2022-09-06T02:54:25;11.57;;;3.78;;
51792;SDS011;37850;53.178;6.376;2022-09-06T02:56:51;11.40;;;4.10;;
51792;SDS011;37850;53.178;6.376;2022-09-06T02:59:16;8.27;;;3.75;;
51792;SDS011;37850;53.178;6.376;2022-09-06T03:01:42;7.65;;;3.97;;
51792;SDS011;37850;53.178;6.376;2022-09-06T03:04:08;8.10;;;3.95;;
51792;SDS011;37850;53.178;6.376;2022-09-06T03:06:33;9.57;;;4.25;;
51792;SDS011;37850;53.178;6.376;2022-09-06T03:08:59;8.68;;;3.92;;
51792;SDS011;37850;53.178;6.376;2022-09-06T03:11:25;10.00;;;3.85;;
51792;SDS011;37850;53.178;6.376;2022-09-06T03:13:52;7.22;;;3.95;;
51792;SDS011;37850;53.178;6.376;2022-09-06T03:16:18;10.48;;;4.18;;
51792;SDS011;37850;53.178;6.376;2022-09-06T03:18:44;9.05;;;4.18;;
51792;SDS011;37850;53.178;6.376;2022-09-06T03:21:11;9.70;;;4.03;;
51792;SDS011;37850;53.178;6.376;2022-09-06T03:23:36;10.30;;;4.18;;
51792;SDS011;37850;53.178;6.376;2022-09-06T03:26:05;6.53;;;3.75;;
51792;SDS011;37850;53.178;6.376;2022-09-06T03:28:31;7.93;;;4.28;;
51792;SDS011;37850;53.178;6.376;2022-09-06T03:30:57;9.25;;;4.22;;
51792;SDS011;37850;53.178;6.376;2022-09-06T03:33:23;7.60;;;3.92;;
51792;SDS011;37850;53.178;6.376;2022-09-06T03:35:50;7.43;;;4.40;;
51792;SDS011;37850;53.178;6.376;2022-09-06T03:38:20;8.93;;;4.43;;
51792;SDS011;37850;53.178;6.376;2022-09-06T03:40:47;8.85;;;4.03;;
51792;SDS011;37850;53.178;6.376;2022-09-06T03:43:14;9.52;;;4.50;;
51792;SDS011;37850;53.178;6.376;2022-09-06T03:45:48;12.55;;;4.50;;
51792;SDS011;37850;53.178;6.376;2022-09-06T03:48:19;6.93;;;4.53;;
51792;SDS011;37850;53.178;6.376;2022-09-06T03:50:47;10.00;;;4.82;;
51792;SDS011;37850;53.178;6.376;2022-09-06T03:53:13;8.27;;;4.38;;
51792;SDS011;37850;53.178;6.376;2022-09-06T03:55:43;7.97;;;4.13;;
51792;SDS011;37850;53.178;6.376;2022-09-06T03:58:14;7.63;;;4.53;;
51792;SDS011;37850;53.178;6.376;2022-09-06T04:00:40;6.97;;;4.43;;
51792;SDS011;37850;53.178;6.376;2022-09-06T04:03:06;7.70;;;4.75;;
51792;SDS011;37850;53.178;6.376;2022-09-06T04:05:32;7.57;;;4.40;;
51792;SDS011;37850;53.178;6.376;2022-09-06T04:07:58;8.50;;;4.97;;
51792;SDS011;37850;53.178;6.376;2022-09-06T04:10:24;10.20;;;4.68;;
51792;SDS011;37850;53.178;6.376;2022-09-06T04:12:49;8.32;;;4.70;;
51792;SDS011;37850;53.178;6.376;2022-09-06T04:15:15;10.10;;;5.05;;
51792;SDS011;37850;53.178;6.376;2022-09-06T04:17:45;10.50;;;5.28;;
51792;SDS011;37850;53.178;6.376;2022-09-06T04:20:11;10.00;;;5.63;;
51792;SDS011;37850;53.178;6.376;2022-09-06T04:22:38;10.27;;;5.65;;
51792;SDS011;37850;53.178;6.376;2022-09-06T04:25:03;10.85;;;5.10;;
51792;SDS011;37850;53.178;6.376;2022-09-06T04:27:29;9.35;;;5.40;;
51792;SDS011;37850;53.178;6.376;2022-09-06T04:29:55;10.10;;;5.90;;
51792;SDS011;37850;53.178;6.376;2022-09-06T04:32:21;9.25;;;5.32;;
51792;SDS011;37850;53.178;6.376;2022-09-06T04:34:47;16.50;;;5.18;;
51792;SDS011;37850;53.178;6.376;2022-09-06T04:37:13;9.60;;;5.05;;
51792;SDS011;37850;53.178;6.376;2022-09-06T04:42:12;8.90;;;4.45;;
51792;SDS011;37850;53.178;6.376;2022-09-06T04:44:38;7.75;;;4.78;;
51792;SDS011;37850;53.178;6.376;2022-09-06T04:47:14;13.43;;;5.43;;
51792;SDS011;37850;53.178;6.376;2022-09-06T04:49:42;9.55;;;5.28;;
51792;SDS011;37850;53.178;6.376;2022-09-06T04:52:08;8.20;;;5.45;;
51792;SDS011;37850;53.178;6.376;2022-09-06T04:54:33;12.80;;;5.43;;
51792;SDS011;37850;53.178;6.376;2022-09-06T04:56:59;8.98;;;5.00;;
51792;SDS011;37850;53.178;6.376;2022-09-06T04:59:25;10.50;;;5.72;;
51792;SDS011;37850;53.178;6.376;2022-09-06T05:01:50;7.90;;;5.32;;
51792;SDS011;37850;53.178;6.376;2022-09-06T05:04:16;8.25;;;5.50;;
51792;SDS011;37850;53.178;6.376;2022-09-06T05:06:42;7.65;;;5.50;;
51792;SDS011;37850;53.178;6.376;2022-09-06T05:09:08;9.30;;;5.38;;
51792;SDS011;37850;53.178;6.376;2022-09-06T05:11:34;7.55;;;5.65;;
51792;SDS011;37850;53.178;6.376;2022-09-06T05:13:59;9.73;;;5.55;;
51792;SDS011;37850;53.178;6.376;2022-09-06T05:16:25;12.10;;;6.07;;
51792;SDS011;37850;53.178;6.376;2022-09-06T05:18:51;7.53;;;5.40;;
51792;SDS011;37850;53.178;6.376;2022-09-06T05:21:17;10.95;;;5.95;;
51792;SDS011;37850;53.178;6.376;2022-09-06T05:23:42;7.60;;;5.53;;
51792;SDS011;37850;53.178;6.376;2022-09-06T05:26:08;9.30;;;5.70;;
51792;SDS011;37850;53.178;6.376;2022-09-06T05:28:34;10.30;;;5.68;;
51792;SDS011;37850;53.178;6.376;2022-09-06T05:31:06;9.10;;;5.97;;
51792;SDS011;37850;53.178;6.376;2022-09-06T05:33:50;9.38;;;5.50;;
51792;SDS011;37850;53.178;6.376;2022-09-06T05:36:17;8.73;;;5.57;;
51792;SDS011;37850;53.178;6.376;2022-09-06T05:38:42;9.65;;;6.00;;
51792;SDS011;37850;53.178;6.376;2022-09-06T05:41:08;10.15;;;6.70;;
51792;SDS011;37850;53.178;6.376;2022-09-06T05:43:34;9.60;;;6.22;;
51792;SDS011;37850;53.178;6.376;2022-09-06T05:45:59;8.60;;;6.10;;
51792;SDS011;37850;53.178;6.376;2022-09-06T05:48:25;9.45;;;6.43;;
51792;SDS011;37850;53.178;6.376;2022-09-06T05:51:01;12.55;;;6.78;;
51792;SDS011;37850;53.178;6.376;2022-09-06T05:53:35;10.03;;;6.30;;
51792;SDS011;37850;53.178;6.376;2022-09-06T05:56:03;9.52;;;6.07;;
51792;SDS011;37850;53.178;6.376;2022-09-06T05:58:29;11.90;;;6.40;;
51792;SDS011;37850;53.178;6.376;2022-09-06T06:03:49;11.70;;;6.63;;
51792;SDS011;37850;53.178;6.376;2022-09-06T06:06:16;10.77;;;6.20;;
51792;SDS011;37850;53.178;6.376;2022-09-06T06:08:43;9.68;;;5.97;;
51792;SDS011;37850;53.178;6.376;2022-09-06T06:11:09;13.30;;;7.10;;
51792;SDS011;37850;53.178;6.376;2022-09-06T06:13:35;12.75;;;7.30;;
51792;SDS011;37850;53.178;6.376;2022-09-06T06:16:06;10.13;;;7.53;;
51792;SDS011;37850;53.178;6.376;2022-09-06T06:18:33;10.27;;;7.45;;
51792;SDS011;37850;53.178;6.376;2022-09-06T06:21:09;9.38;;;7.53;;
51792;SDS011;37850;53.178;6.376;2022-09-06T06:23:40;12.33;;;7.80;;
51792;SDS011;37850;53.178;6.376;2022-09-06T06:26:07;11.77;;;7.18;;
51792;SDS011;37850;53.178;6.376;2022-09-06T06:28:35;11.32;;;7.65;;
51792;SDS011;37850;53.178;6.376;2022-09-06T06:31:02;11.35;;;8.07;;
51792;SDS011;37850;53.178;6.376;2022-09-06T06:33:28;13.88;;;8.40;;
51792;SDS011;37850;53.178;6.376;2022-09-06T06:36:02;12.20;;;7.90;;
51792;SDS011;37850;53.178;6.376;2022-09-06T06:38:36;14.20;;;7.75;;
51792;SDS011;37850;53.178;6.376;2022-09-06T06:41:03;14.07;;;8.90;;
51792;SDS011;37850;53.178;6.376;2022-09-06T06:43:30;15.48;;;8.60;;
51792;SDS011;37850;53.178;6.376;2022-09-06T06:46:06;10.77;;;7.70;;
51792;SDS011;37850;53.178;6.376;2022-09-06T06:48:34;13.23;;;8.52;;
51792;SDS011;37850;53.178;6.376;2022-09-06T06:51:01;11.65;;;7.75;;
51792;SDS011;37850;53.178;6.376;2022-09-06T06:53:27;14.63;;;8.82;;
51792;SDS011;37850;53.178;6.376;2022-09-06T06:55:53;13.02;;;8.40;;
51792;SDS011;37850;53.178;6.376;2022-09-06T06:58:19;11.93;;;7.95;;
51792;SDS011;37850;53.178;6.376;2022-09-06T07:00:45;13.75;;;9.45;;
51792;SDS011;37850;53.178;6.376;2022-09-06T07:03:11;10.90;;;8.00;;
51792;SDS011;37850;53.178;6.376;2022-09-06T07:05:37;14.82;;;8.32;;
51792;SDS011;37850;53.178;6.376;2022-09-06T07:08:05;9.68;;;8.07;;
51792;SDS011;37850;53.178;6.376;2022-09-06T07:10:32;11.18;;;8.77;;
51792;SDS011;37850;53.178;6.376;2022-09-06T07:12:58;11.55;;;8.73;;
51792;SDS011;37850;53.178;6.376;2022-09-06T07:15:24;13.45;;;9.05;;
51792;SDS011;37850;53.178;6.376;2022-09-06T07:17:50;10.73;;;8.25;;
51792;SDS011;37850;53.178;6.376;2022-09-06T07:20:17;12.75;;;8.13;;
51792;SDS011;37850;53.178;6.376;2022-09-06T07:22:44;10.38;;;8.00;;
51792;SDS011;37850;53.178;6.376;2022-09-06T07:25:10;11.93;;;9.35;;
51792;SDS011;37850;53.178;6.376;2022-09-06T07:27:38;15.00;;;8.98;;
51792;SDS011;37850;53.178;6.376;2022-09-06T07:30:04;13.38;;;9.40;;
51792;SDS011;37850;53.178;6.376;2022-09-06T07:32:32;13.23;;;9.55;;
51792;SDS011;37850;53.178;6.376;2022-09-06T07:34:58;11.55;;;8.15;;
51792;SDS011;37850;53.178;6.376;2022-09-06T07:37:24;12.15;;;8.50;;
51792;SDS011;37850;53.178;6.376;2022-09-06T07:39:49;15.18;;;8.15;;
51792;SDS011;37850;53.178;6.376;2022-09-06T07:42:15;14.05;;;8.60;;
51792;SDS011;37850;53.178;6.376;2022-09-06T07:44:41;13.75;;;9.00;;
51792;SDS011;37850;53.178;6.376;2022-09-06T07:47:07;19.48;;;9.30;;
51792;SDS011;37850;53.178;6.376;2022-09-06T07:49:34;11.18;;;7.97;;
51792;SDS011;37850;53.178;6.376;2022-09-06T07:52:00;10.30;;;8.38;;
51792;SDS011;37850;53.178;6.376;2022-09-06T07:54:25;10.93;;;8.52;;
51792;SDS011;37850;53.178;6.376;2022-09-06T07:56:51;10.80;;;7.90;;
51792;SDS011;37850;53.178;6.376;2022-09-06T07:59:17;17.02;;;9.77;;
51792;SDS011;37850;53.178;6.376;2022-09-06T08:01:42;12.00;;;8.23;;
51792;SDS011;37850;53.178;6.376;2022-09-06T08:04:09;10.43;;;7.95;;
51792;SDS011;37850;53.178;6.376;2022-09-06T08:06:38;12.70;;;8.02;;
51792;SDS011;37850;53.178;6.376;2022-09-06T08:09:08;10.65;;;8.40;;
51792;SDS011;37850;53.178;6.376;2022-09-06T08:11:35;13.65;;;8.25;;
51792;SDS011;37850;53.178;6.376;2022-09-06T08:14:01;10.02;;;7.40;;
51792;SDS011;37850;53.178;6.376;2022-09-06T08:16:30;10.88;;;7.63;;
51792;SDS011;37850;53.178;6.376;2022-09-06T08:18:58;10.50;;;7.28;;
51792;SDS011;37850;53.178;6.376;2022-09-06T08:21:25;13.65;;;7.97;;
51792;SDS011;37850;53.178;6.376;2022-09-06T08:23:59;10.52;;;8.00;;
51792;SDS011;37850;53.178;6.376;2022-09-06T08:26:27;12.88;;;7.60;;
51792;SDS011;37850;53.178;6.376;2022-09-06T08:28:55;11.07;;;8.57;;
51792;SDS011;37850;53.178;6.376;2022-09-06T08:31:24;9.80;;;7.63;;
51792;SDS011;37850;53.178;6.376;2022-09-06T08:33:51;11.02;;;7.70;;
51792;SDS011;37850;53.178;6.376;2022-09-06T08:36:18;12.18;;;7.85;;
51792;SDS011;37850;53.178;6.376;2022-09-06T08:38:43;11.55;;;7.68;;
51792;SDS011;37850;53.178;6.376;2022-09-06T08:46:22;10.50;;;7.20;;
51792;SDS011;37850;53.178;6.376;2022-09-06T08:48:56;12.57;;;8.63;;
51792;SDS011;37850;53.178;6.376;2022-09-06T08:54:28;12.85;;;8.18;;
51792;SDS011;37850;53.178;6.376;2022-09-06T08:57:03;10.63;;;7.80;;
51792;SDS011;37850;53.178;6.376;2022-09-06T08:59:35;14.90;;;9.02;;
51792;SDS011;37850;53.178;6.376;2022-09-06T09:04:44;12.45;;;7.85;;
51792;SDS011;37850;53.178;6.376;2022-09-06T09:10:04;13.70;;;8.52;;
51792;SDS011;37850;53.178;6.376;2022-09-06T09:12:39;15.77;;;8.98;;
51792;SDS011;37850;53.178;6.376;2022-09-06T09:15:09;10.30;;;7.55;;
51792;SDS011;37850;53.178;6.376;2022-09-06T09:17:38;10.27;;;7.28;;
51792;SDS011;37850;53.178;6.376;2022-09-06T09:20:04;11.30;;;7.25;;
51792;SDS011;37850;53.178;6.376;2022-09-06T09:22:32;10.35;;;6.88;;
51792;SDS011;37850;53.178;6.376;2022-09-06T09:24:59;8.27;;;6.22;;
51792;SDS011;37850;53.178;6.376;2022-09-06T09:27:26;9.05;;;6.75;;
51792;SDS011;37850;53.178;6.376;2022-09-06T09:32:34;10.48;;;6.72;;
51792;SDS011;37850;53.178;6.376;2022-09-06T09:35:16;15.30;;;7.22;;
51792;SDS011;37850;53.178;6.376;2022-09-06T09:37:42;10.55;;;7.40;;
51792;SDS011;37850;53.178;6.376;2022-09-06T09:40:12;11.85;;;7.03;;
51792;SDS011;37850;53.178;6.376;2022-09-06T09:42:40;12.38;;;7.80;;
51792;SDS011;37850;53.178;6.376;2022-09-06T09:45:28;11.75;;;8.07;;
51792;SDS011;37850;53.178;6.376;2022-09-06T09:47:54;11.77;;;6.55;;
51792;SDS011;37850;53.178;6.376;2022-09-06T09:50:27;9.00;;;6.60;;
51792;SDS011;37850;53.178;6.376;2022-09-06T09:52:53;12.80;;;7.13;;
51792;SDS011;37850;53.178;6.376;2022-09-06T09:55:22;9.20;;;6.82;;
51792;SDS011;37850;53.178;6.376;2022-09-06T09:57:50;11.48;;;6.70;;
51792;SDS011;37850;53.178;6.376;2022-09-06T10:00:33;10.73;;;7.20;;
51792;SDS011;37850;53.178;6.376;2022-09-06T10:03:13;10.68;;;5.88;;
51792;SDS011;37850;53.178;6.376;2022-09-06T10:05:41;10.98;;;6.20;;
51792;SDS011;37850;53.178;6.376;2022-09-06T10:08:18;11.82;;;6.80;;
51792;SDS011;37850;53.178;6.376;2022-09-06T10:10:48;8.67;;;6.37;;
51792;SDS011;37850;53.178;6.376;2022-09-06T10:13:26;11.05;;;6.30;;
51792;SDS011;37850;53.178;6.376;2022-09-06T10:15:54;10.73;;;5.40;;
51792;SDS011;37850;53.178;6.376;2022-09-06T10:18:32;10.40;;;5.93;;
51792;SDS011;37850;53.178;6.376;2022-09-06T10:21:05;11.75;;;5.03;;
51792;SDS011;37850;53.178;6.376;2022-09-06T10:26:51;11.13;;;5.88;;
51792;SDS011;37850;53.178;6.376;2022-09-06T10:29:24;7.80;;;4.97;;
51792;SDS011;37850;53.178;6.376;2022-09-06T10:32:28;11.07;;;5.97;;
51792;SDS011;37850;53.178;6.376;2022-09-06T10:40:39;11.38;;;6.90;;
51792;SDS011;37850;53.178;6.376;2022-09-06T10:43:14;11.13;;;7.50;;
51792;SDS011;37850;53.178;6.376;2022-09-06T10:48:29;12.60;;;8.88;;
51792;SDS011;37850;53.178;6.376;2022-09-06T10:59:06;12.80;;;7.82;;
51792;SDS011;37850;53.178;6.376;2022-09-06T11:04:40;15.05;;;9.00;;
51792;SDS011;37850;53.178;6.376;2022-09-06T11:07:30;12.70;;;7.57;;
51792;SDS011;37850;53.178;6.376;2022-09-06T11:20:31;17.83;;;8.85;;
51792;SDS011;37850;53.178;6.376;2022-09-06T11:28:42;15.07;;;7.38;;
51792;SDS011;37850;53.178;6.376;2022-09-06T11:31:20;10.13;;;7.97;;
51792;SDS011;37850;53.178;6.376;2022-09-06T11:33:47;11.70;;;6.88;;
51792;SDS011;37850;53.178;6.376;2022-09-06T11:38:58;10.60;;;6.72;;
51792;SDS011;37850;53.178;6.376;2022-09-06T11:41:27;13.35;;;6.85;;
51792;SDS011;37850;53.178;6.376;2022-09-06T11:43:55;12.07;;;6.72;;
51792;SDS011;37850;53.178;6.376;2022-09-06T11:49:00;10.75;;;6.57;;
51792;SDS011;37850;53.178;6.376;2022-09-06T11:54:03;10.77;;;5.90;;
51792;SDS011;37850;53.178;6.376;2022-09-06T11:56:38;9.27;;;5.50;;
51792;SDS011;37850;53.178;6.376;2022-09-06T12:07:35;13.10;;;5.90;;
51792;SDS011;37850;53.178;6.376;2022-09-06T12:17:53;9.98;;;5.47;;
51792;SDS011;37850;53.178;6.376;2022-09-06T12:23:45;10.63;;;3.85;;
51792;SDS011;37850;53.178;6.376;2022-09-06T12:26:06;8.10;;;3.85;;
51792;SDS011;37850;53.178;6.376;2022-09-06T12:28:34;10.43;;;4.60;;
51792;SDS011;37850;53.178;6.376;2022-09-06T12:33:53;8.43;;;3.90;;
51792;SDS011;37850;53.178;6.376;2022-09-06T12:36:25;8.52;;;4.00;;
51792;SDS011;37850;53.178;6.376;2022-09-06T12:38:55;7.68;;;3.78;;
51792;SDS011;37850;53.178;6.376;2022-09-06T12:41:24;6.55;;;2.75;;
51792;SDS011;37850;53.178;6.376;2022-09-06T12:43:51;5.07;;;3.08;;
51792;SDS011;37850;53.178;6.376;2022-09-06T12:46:20;6.72;;;3.45;;
51792;SDS011;37850;53.178;6.376;2022-09-06T12:48:59;8.68;;;3.47;;
51792;SDS011;37850;53.178;6.376;2022-09-06T12:51:26;7.10;;;3.22;;
51792;SDS011;37850;53.178;6.376;2022-09-06T12:53:52;6.15;;;3.15;;
51792;SDS011;37850;53.178;6.376;2022-09-06T12:56:22;7.07;;;3.35;;
51792;SDS011;37850;53.178;6.376;2022-09-06T12:58:52;5.03;;;3.30;;
51792;SDS011;37850;53.178;6.376;2022-09-06T13:01:33;9.35;;;3.38;;
51792;SDS011;37850;53.178;6.376;2022-09-06T13:04:05;6.82;;;3.30;;
51792;SDS011;37850;53.178;6.376;2022-09-06T13:06:41;6.07;;;3.00;;
51792;SDS011;37850;53.178;6.376;2022-09-06T13:09:10;9.45;;;3.22;;
51792;SDS011;37850;53.178;6.376;2022-09-06T13:11:41;5.47;;;2.70;;
51792;SDS011;37850;53.178;6.376;2022-09-06T13:14:10;4.68;;;2.47;;
51792;SDS011;37850;53.178;6.376;2022-09-06T13:16:46;6.50;;;2.70;;
51792;SDS011;37850;53.178;6.376;2022-09-06T13:19:27;5.50;;;2.67;;
51792;SDS011;37850;53.178;6.376;2022-09-06T13:21:58;4.68;;;2.53;;
51792;SDS011;37850;53.178;6.376;2022-09-06T13:27:21;8.30;;;2.67;;
51792;SDS011;37850;53.178;6.376;2022-09-06T13:30:05;4.80;;;2.50;;
51792;SDS011;37850;53.178;6.376;2022-09-06T13:32:34;4.63;;;2.20;;
51792;SDS011;37850;53.178;6.376;2022-09-06T13:35:09;5.05;;;2.42;;
51792;SDS011;37850;53.178;6.376;2022-09-06T13:37:36;4.03;;;2.13;;
51792;SDS011;37850;53.178;6.376;2022-09-06T13:43:10;5.68;;;2.08;;
51792;SDS011;37850;53.178;6.376;2022-09-06T13:45:36;4.75;;;2.28;;
51792;SDS011;37850;53.178;6.376;2022-09-06T13:48:02;5.45;;;2.50;;
51792;SDS011;37850;53.178;6.376;2022-09-06T13:50:28;5.30;;;2.70;;
51792;SDS011;37850;53.178;6.376;2022-09-06T13:52:54;7.50;;;2.70;;
51792;SDS011;37850;53.178;6.376;2022-09-06T13:55:20;6.88;;;2.38;;
51792;SDS011;37850;53.178;6.376;2022-09-06T13:57:49;5.15;;;2.42;;
51792;SDS011;37850;53.178;6.376;2022-09-06T14:00:14;10.40;;;2.70;;
51792;SDS011;37850;53.178;6.376;2022-09-06T14:02:41;5.30;;;2.90;;
51792;SDS011;37850;53.178;6.376;2022-09-06T14:05:08;7.28;;;3.08;;
51792;SDS011;37850;53.178;6.376;2022-09-06T14:07:33;6.45;;;3.10;;
51792;SDS011;37850;53.178;6.376;2022-09-06T14:10:02;4.75;;;2.92;;
51792;SDS011;37850;53.178;6.376;2022-09-06T14:12:28;5.78;;;2.70;;
51792;SDS011;37850;53.178;6.376;2022-09-06T14:14:54;5.82;;;2.90;;
51792;SDS011;37850;53.178;6.376;2022-09-06T14:17:20;5.10;;;3.03;;
51792;SDS011;37850;53.178;6.376;2022-09-06T14:19:46;7.05;;;2.72;;
51792;SDS011;37850;53.178;6.376;2022-09-06T14:22:12;7.05;;;2.85;;
51792;SDS011;37850;53.178;6.376;2022-09-06T14:24:38;7.50;;;2.42;;
51792;SDS011;37850;53.178;6.376;2022-09-06T14:27:04;4.95;;;2.45;;
51792;SDS011;37850;53.178;6.376;2022-09-06T14:29:31;4.43;;;2.50;;
51792;SDS011;37850;53.178;6.376;2022-09-06T14:31:58;5.10;;;2.30;;
51792;SDS011;37850;53.178;6.376;2022-09-06T14:34:24;5.05;;;2.20;;
51792;SDS011;37850;53.178;6.376;2022-09-06T14:36:50;4.47;;;2.33;;
51792;SDS011;37850;53.178;6.376;2022-09-06T14:39:16;6.53;;;2.45;;
51792;SDS011;37850;53.178;6.376;2022-09-06T14:41:42;4.63;;;2.10;;
51792;SDS011;37850;53.178;6.376;2022-09-06T14:44:08;4.65;;;2.10;;
51792;SDS011;37850;53.178;6.376;2022-09-06T14:46:34;5.65;;;2.25;;
51792;SDS011;37850;53.178;6.376;2022-09-06T14:49:01;3.92;;;1.98;;
51792;SDS011;37850;53.178;6.376;2022-09-06T14:54:06;6.40;;;2.00;;
51792;SDS011;37850;53.178;6.376;2022-09-06T14:56:34;5.13;;;2.10;;
51792;SDS011;37850;53.178;6.376;2022-09-06T14:59:02;6.53;;;2.17;;
51792;SDS011;37850;53.178;6.376;2022-09-06T15:01:29;6.45;;;2.17;;
51792;SDS011;37850;53.178;6.376;2022-09-06T15:03:57;7.47;;;2.20;;
51792;SDS011;37850;53.178;6.376;2022-09-06T15:06:26;3.78;;;1.85;;
51792;SDS011;37850;53.178;6.376;2022-09-06T15:08:52;5.88;;;2.28;;
51792;SDS011;37850;53.178;6.376;2022-09-06T15:11:31;8.07;;;2.10;;
51792;SDS011;37850;53.178;6.376;2022-09-06T15:14:02;4.72;;;2.03;;
51792;SDS011;37850;53.178;6.376;2022-09-06T15:16:30;7.95;;;2.10;;
51792;SDS011;37850;53.178;6.376;2022-09-06T15:18:56;10.57;;;2.60;;
51792;SDS011;37850;53.178;6.376;2022-09-06T15:21:23;4.00;;;2.05;;
51792;SDS011;37850;53.178;6.376;2022-09-06T15:23:52;5.13;;;2.00;;
51792;SDS011;37850;53.178;6.376;2022-09-06T15:26:21;5.40;;;1.95;;
51792;SDS011;37850;53.178;6.376;2022-09-06T15:28:47;6.28;;;1.98;;
51792;SDS011;37850;53.178;6.376;2022-09-06T15:31:13;4.05;;;1.92;;
51792;SDS011;37850;53.178;6.376;2022-09-06T15:33:40;6.13;;;2.17;;
51792;SDS011;37850;53.178;6.376;2022-09-06T15:36:07;3.85;;;1.83;;
51792;SDS011;37850;53.178;6.376;2022-09-06T15:38:44;7.03;;;2.03;;
51792;SDS011;37850;53.178;6.376;2022-09-06T15:41:13;8.40;;;2.47;;
51792;SDS011;37850;53.178;6.376;2022-09-06T15:43:49;4.40;;;2.00;;
51792;SDS011;37850;53.178;6.376;2022-09-06T15:46:18;4.20;;;1.77;;
51792;SDS011;37850;53.178;6.376;2022-09-06T15:48:53;4.28;;;1.98;;
51792;SDS011;37850;53.178;6.376;2022-09-06T15:51:19;5.97;;;1.95;;
51792;SDS011;37850;53.178;6.376;2022-09-06T15:53:45;4.72;;;1.77;;
51792;SDS011;37850;53.178;6.376;2022-09-06T15:56:15;4.32;;;1.73;;
51792;SDS011;37850;53.178;6.376;2022-09-06T15:58:42;6.55;;;2.00;;
51792;SDS011;37850;53.178;6.376;2022-09-06T16:01:19;5.65;;;2.05;;
51792;SDS011;37850;53.178;6.376;2022-09-06T16:03:51;4.45;;;1.90;;
51792;SDS011;37850;53.178;6.376;2022-09-06T16:06:22;5.18;;;1.95;;
51792;SDS011;37850;53.178;6.376;2022-09-06T16:08:54;5.35;;;1.88;;
51792;SDS011;37850;53.178;6.376;2022-09-06T16:11:22;6.53;;;1.60;;
51792;SDS011;37850;53.178;6.376;2022-09-06T16:13:48;4.50;;;1.80;;
51792;SDS011;37850;53.178;6.376;2022-09-06T16:16:14;6.03;;;1.90;;
51792;SDS011;37850;53.178;6.376;2022-09-06T16:18:41;6.05;;;2.10;;
51792;SDS011;37850;53.178;6.376;2022-09-06T16:21:09;5.95;;;2.45;;
51792;SDS011;37850;53.178;6.376;2022-09-06T16:23:39;5.22;;;1.77;;
51792;SDS011;37850;53.178;6.376;2022-09-06T16:26:06;7.05;;;2.00;;
51792;SDS011;37850;53.178;6.376;2022-09-06T16:28:33;5.05;;;1.90;;
51792;SDS011;37850;53.178;6.376;2022-09-06T16:31:05;5.95;;;1.90;;
51792;SDS011;37850;53.178;6.376;2022-09-06T16:33:32;5.43;;;1.90;;
51792;SDS011;37850;53.178;6.376;2022-09-06T16:36:00;5.40;;;1.88;;
51792;SDS011;37850;53.178;6.376;2022-09-06T16:38:28;5.10;;;2.05;;
51792;SDS011;37850;53.178;6.376;2022-09-06T16:40:58;6.63;;;1.88;;
51792;SDS011;37850;53.178;6.376;2022-09-06T16:43:26;7.43;;;1.88;;
51792;SDS011;37850;53.178;6.376;2022-09-06T16:45:56;5.05;;;1.58;;
51792;SDS011;37850;53.178;6.376;2022-09-06T16:48:22;5.35;;;1.80;;
51792;SDS011;37850;53.178;6.376;2022-09-06T16:50:49;4.88;;;2.00;;
51792;SDS011;37850;53.178;6.376;2022-09-06T16:53:15;4.57;;;1.60;;
51792;SDS011;37850;53.178;6.376;2022-09-06T16:55:41;6.55;;;2.03;;
51792;SDS011;37850;53.178;6.376;2022-09-06T16:58:07;6.43;;;1.70;;
51792;SDS011;37850;53.178;6.376;2022-09-06T17:00:32;6.38;;;2.00;;
51792;SDS011;37850;53.178;6.376;2022-09-06T17:02:58;3.13;;;1.55;;
51792;SDS011;37850;53.178;6.376;2022-09-06T17:05:24;6.18;;;1.95;;